Time;durP1;ratioP1;P1;durP2;ratioP2;P2;SDS_P1;SDS_P2;PMS_P1;PMS_P2;Temp;Humidity;BMP_temperature;BMP_pressure;BME280_temperature;BME280_humidity;BME280_pressure;Samples;Min_cycle;Max_cycle;Signal;HPM_P1;HPM_P2
2022/03/04 00:01:27;;;;;;;11.95;8.25;;;-0.90;90.60;;;;;;5142670;27;20601;-79
2022/03/04 00:03:55;;;;;;;11.45;8.85;;;-0.90;90.50;;;;;;5142097;27;20229;-79
2022/03/04 00:06:21;;;;;;;12.77;8.38;;;-0.90;90.60;;;;;;5141625;27;20563;-79
2022/03/04 00:08:50;;;;;;;11.88;8.75;;;-0.90;90.70;;;;;;5139827;27;20195;-78
2022/03/04 00:11:17;;;;;;;12.00;8.75;;;-0.90;90.70;;;;;;5141696;27;20202;-79
2022/03/04 00:13:44;;;;;;;13.07;9.02;;;-0.90;90.60;;;;;;5142440;27;20226;-78
2022/03/04 00:16:10;;;;;;;12.43;9.00;;;-1.00;90.80;;;;;;5141468;27;20206;-79
2022/03/04 00:18:37;;;;;;;11.48;7.82;;;-1.00;90.70;;;;;;5140707;27;20221;-79
2022/03/04 00:21:05;;;;;;;11.18;7.30;;;-0.90;90.80;;;;;;5141562;27;20578;-78
2022/03/04 00:23:33;;;;;;;14.85;9.07;;;-0.90;90.90;;;;;;5141642;27;20237;-78
2022/03/04 00:26:00;;;;;;;12.77;8.60;;;-0.90;91.00;;;;;;5141526;27;20654;-79
2022/03/04 00:28:26;;;;;;;20.23;10.55;;;-0.90;91.00;;;;;;5142161;27;20198;-79
2022/03/04 00:30:53;;;;;;;10.25;7.82;;;-1.00;91.00;;;;;;5142657;27;20202;-78
2022/03/04 00:33:20;;;;;;;12.25;8.23;;;-1.00;90.90;;;;;;5140565;27;20202;-79
2022/03/04 00:35:47;;;;;;;10.25;8.27;;;-1.10;91.10;;;;;;5140529;27;20225;-79
2022/03/04 00:38:15;;;;;;;13.13;9.88;;;-1.10;91.20;;;;;;5140503;27;20228;-78
2022/03/04 00:40:41;;;;;;;14.73;8.77;;;-1.10;91.30;;;;;;5140991;27;20225;-77
2022/03/04 00:43:08;;;;;;;11.70;8.77;;;-1.10;91.40;;;;;;5140733;27;20202;-79
2022/03/04 00:45:35;;;;;;;10.82;9.02;;;-1.10;91.40;;;;;;5141443;27;20202;-79
2022/03/04 00:48:01;;;;;;;11.07;8.77;;;-1.20;91.50;;;;;;5139939;27;20202;-80
2022/03/04 00:50:28;;;;;;;11.55;8.43;;;-1.20;91.70;;;;;;5141722;27;20673;-77
2022/03/04 00:52:57;;;;;;;15.65;10.00;;;-1.20;91.80;;;;;;5141488;27;20202;-79
2022/03/04 00:55:25;;;;;;;11.18;8.25;;;-1.20;92.00;;;;;;5141899;27;20214;-79
2022/03/04 00:57:51;;;;;;;14.55;9.10;;;-1.30;92.10;;;;;;5140871;27;20198;-79
2022/03/04 01:00:18;;;;;;;12.25;9.00;;;-1.30;92.00;;;;;;5141445;27;20198;-80
2022/03/04 01:02:45;;;;;;;12.15;8.70;;;-1.30;92.10;;;;;;5141217;27;20202;-78
2022/03/04 01:05:12;;;;;;;14.35;8.45;;;-1.40;92.00;;;;;;5140946;27;20225;-78
2022/03/04 01:07:39;;;;;;;12.07;8.02;;;-1.40;92.10;;;;;;5141134;27;20737;-79
2022/03/04 01:10:06;;;;;;;11.80;8.52;;;-1.40;92.10;;;;;;5141543;27;20191;-79
2022/03/04 01:12:34;;;;;;;13.52;9.18;;;-1.40;92.10;;;;;;5141756;27;20194;-79
2022/03/04 01:15:01;;;;;;;11.95;8.80;;;-1.50;92.30;;;;;;5140919;28;20246;-79
2022/03/04 01:17:27;;;;;;;13.07;8.65;;;-1.50;92.40;;;;;;5140666;28;20198;-77
2022/03/04 01:19:54;;;;;;;12.77;8.20;;;-1.50;92.50;;;;;;5140589;28;20237;-80
2022/03/04 01:22:21;;;;;;;12.60;8.65;;;-1.60;92.70;;;;;;5143377;28;20209;-77
2022/03/04 01:24:47;;;;;;;13.63;10.57;;;-1.60;92.90;;;;;;5135125;28;20222;-77
2022/03/04 01:27:14;;;;;;;18.33;10.38;;;-1.60;93.20;;;;;;5131106;28;20621;-78
2022/03/04 01:29:42;;;;;;;14.40;10.25;;;-1.60;93.00;;;;;;5133377;28;20199;-78
2022/03/04 01:32:09;;;;;;;12.00;8.82;;;-1.60;93.10;;;;;;5134094;28;21102;-78
2022/03/04 01:34:36;;;;;;;13.23;9.40;;;-1.60;93.10;;;;;;5134685;28;20225;-78
2022/03/04 01:37:03;;;;;;;12.27;8.57;;;-1.60;93.30;;;;;;5134780;28;20198;-78
2022/03/04 01:39:30;;;;;;;12.98;9.43;;;-1.60;93.40;;;;;;5136873;28;20226;-78
2022/03/04 01:44:24;;;;;;;13.75;9.23;;;-1.70;93.50;;;;;;5093245;28;20224;-77
2022/03/04 01:46:52;;;;;;;15.10;10.10;;;-1.70;93.70;;;;;;5093726;28;20200;-79
2022/03/04 01:49:19;;;;;;;13.68;8.13;;;-1.70;93.50;;;;;;5093653;28;20667;-78
2022/03/04 01:51:46;;;;;;;11.07;9.55;;;-1.80;93.50;;;;;;5095627;28;20678;-79
2022/03/04 01:54:13;;;;;;;15.20;10.10;;;-1.70;93.50;;;;;;5094185;28;20595;-80
2022/03/04 01:56:40;;;;;;;14.38;9.48;;;-1.70;93.50;;;;;;5093378;28;20208;-78
2022/03/04 01:59:07;;;;;;;15.15;10.13;;;-1.80;93.60;;;;;;5093700;28;20227;-80
2022/03/04 02:01:35;;;;;;;11.50;8.70;;;-1.80;93.50;;;;;;5093913;28;20207;-80
2022/03/04 02:04:03;;;;;;;13.52;9.57;;;-1.80;93.60;;;;;;5108081;28;20242;-76
2022/03/04 02:06:30;;;;;;;15.80;9.43;;;-1.90;93.70;;;;;;5113960;28;20198;-77
2022/03/04 02:08:57;;;;;;;16.13;10.60;;;-1.90;93.80;;;;;;5113460;28;20196;-77
2022/03/04 02:11:24;;;;;;;15.52;10.15;;;-2.00;94.10;;;;;;5114995;28;20207;-76
2022/03/04 02:13:50;;;;;;;13.18;9.70;;;-2.00;94.10;;;;;;5115295;28;20286;-78
2022/03/04 02:16:22;;;;;;;13.20;9.23;;;-2.00;94.00;;;;;;5110285;28;20184;-78
2022/03/04 02:18:49;;;;;;;14.77;9.88;;;-2.10;94.20;;;;;;5107388;28;20228;-79
2022/03/04 02:21:20;;;;;;;14.07;8.65;;;-2.10;94.40;;;;;;5094598;28;20206;-80
2022/03/04 02:23:48;;;;;;;14.68;9.80;;;-2.20;94.30;;;;;;5097468;28;20231;-80
2022/03/04 02:26:15;;;;;;;18.50;9.13;;;-2.20;94.50;;;;;;5096956;28;20195;-80
2022/03/04 02:28:42;;;;;;;12.85;9.88;;;-2.20;94.50;;;;;;5096748;28;20196;-79
2022/03/04 02:31:08;;;;;;;17.52;10.00;;;-2.20;94.50;;;;;;5097050;28;20196;-80
2022/03/04 02:33:35;;;;;;;15.32;10.43;;;-2.20;94.60;;;;;;5096307;28;20224;-78
2022/03/04 02:36:02;;;;;;;14.60;9.50;;;-2.20;94.80;;;;;;5095228;28;20300;-78
2022/03/04 02:38:29;;;;;;;13.55;9.73;;;-2.20;94.70;;;;;;5094450;28;20210;-77
2022/03/04 02:40:57;;;;;;;14.90;9.63;;;-2.20;94.60;;;;;;5095534;28;20207;-78
2022/03/04 02:43:24;;;;;;;13.45;8.93;;;-2.20;94.70;;;;;;5095318;28;20212;-79
2022/03/04 02:45:51;;;;;;;17.67;10.10;;;-2.30;94.70;;;;;;5096351;28;20210;-78
2022/03/04 02:48:18;;;;;;;16.05;10.25;;;-2.20;94.50;;;;;;5096672;28;20227;-79
2022/03/04 02:50:45;;;;;;;17.85;10.07;;;-2.30;94.40;;;;;;5097865;28;20203;-80
2022/03/04 02:53:12;;;;;;;15.27;9.90;;;-2.30;94.60;;;;;;5097125;28;20208;-79
2022/03/04 02:55:38;;;;;;;14.10;8.38;;;-2.40;94.60;;;;;;5097824;28;20211;-80
2022/03/04 02:58:07;;;;;;;12.48;8.65;;;-2.40;94.50;;;;;;5096635;28;20211;-79
2022/03/04 03:00:34;;;;;;;13.73;8.60;;;-2.40;94.60;;;;;;5096645;28;20259;-76
2022/03/04 03:03:01;;;;;;;17.00;8.93;;;-2.50;94.60;;;;;;5096926;28;20222;-81
2022/03/04 03:05:28;;;;;;;16.98;9.30;;;-2.50;94.60;;;;;;5095848;28;20578;-78
2022/03/04 03:07:54;;;;;;;17.20;10.40;;;-2.50;94.70;;;;;;5096131;28;20203;-78
2022/03/04 03:10:21;;;;;;;18.10;10.00;;;-2.50;94.70;;;;;;5097347;28;20199;-79
2022/03/04 03:12:48;;;;;;;16.88;9.65;;;-2.50;94.90;;;;;;5096555;28;20195;-80
2022/03/04 03:15:16;;;;;;;18.48;10.38;;;-2.50;94.80;;;;;;5096287;28;20226;-80
2022/03/04 03:17:42;;;;;;;11.85;8.90;;;-2.50;94.70;;;;;;5096081;28;20196;-80
2022/03/04 03:20:11;;;;;;;10.48;9.35;;;-2.50;94.70;;;;;;5096328;28;20220;-77
2022/03/04 03:22:38;;;;;;;11.50;8.45;;;-2.50;94.90;;;;;;5096392;28;20218;-78
2022/03/04 03:25:05;;;;;;;14.20;9.38;;;-2.50;94.80;;;;;;5096104;28;20223;-79
2022/03/04 03:27:32;;;;;;;11.98;8.20;;;-2.60;94.90;;;;;;5095620;28;20662;-79
2022/03/04 03:29:59;;;;;;;13.27;9.75;;;-2.70;95.20;;;;;;5096060;28;20201;-79
2022/03/04 03:32:27;;;;;;;12.98;9.05;;;-2.80;95.50;;;;;;5094649;28;20211;-80
2022/03/04 03:34:54;;;;;;;13.15;9.45;;;-2.70;95.30;;;;;;5094474;28;20220;-80
2022/03/04 03:37:21;;;;;;;14.05;9.45;;;-2.70;95.60;;;;;;5093412;28;20208;-78
2022/03/04 03:39:48;;;;;;;14.88;9.45;;;-2.70;95.40;;;;;;5094138;28;20265;-80
2022/03/04 03:42:14;;;;;;;12.98;8.75;;;-2.70;95.60;;;;;;5094959;28;20325;-80
2022/03/04 03:44:41;;;;;;;11.70;8.75;;;-2.70;95.40;;;;;;5095364;28;20258;-77
2022/03/04 03:47:09;;;;;;;13.13;8.98;;;-2.60;95.60;;;;;;5095410;28;20204;-78
2022/03/04 03:49:37;;;;;;;12.77;8.60;;;-2.70;95.60;;;;;;5095462;28;20202;-79
2022/03/04 03:52:05;;;;;;;12.63;9.10;;;-2.70;95.50;;;;;;5097290;28;20204;-80
2022/03/04 03:54:32;;;;;;;15.48;9.95;;;-2.60;95.50;;;;;;5096294;28;20234;-79
2022/03/04 03:56:59;;;;;;;19.15;9.00;;;-2.60;95.50;;;;;;5095050;28;20204;-80
2022/03/04 03:59:25;;;;;;;11.70;9.18;;;-2.60;95.40;;;;;;5095358;28;20215;-80
2022/03/04 04:01:52;;;;;;;15.55;10.90;;;-2.60;95.50;;;;;;5095252;28;20204;-78
2022/03/04 04:04:19;;;;;;;12.48;9.75;;;-2.60;95.40;;;;;;5095680;28;20226;-79
2022/03/04 04:06:47;;;;;;;13.65;8.77;;;-2.60;95.30;;;;;;5094341;28;20202;-80
2022/03/04 04:09:13;;;;;;;14.45;9.38;;;-2.70;95.50;;;;;;5095492;28;20203;-79
2022/03/04 04:11:40;;;;;;;14.82;9.55;;;-2.70;95.70;;;;;;5096107;28;20207;-80
2022/03/04 04:14:09;;;;;;;15.95;9.88;;;-2.80;95.80;;;;;;5095831;28;20227;-78
2022/03/04 04:16:37;;;;;;;13.20;9.25;;;-2.80;95.80;;;;;;5095125;28;20653;-80
2022/03/04 04:19:04;;;;;;;13.23;9.00;;;-2.90;95.80;;;;;;5095324;28;20216;-78
2022/03/04 04:21:34;;;;;;;14.35;10.35;;;-2.90;95.80;;;;;;5095512;28;20206;-80
2022/03/04 04:24:02;;;;;;;14.40;9.50;;;-2.90;95.70;;;;;;5095289;28;20269;-80
2022/03/04 04:26:28;;;;;;;14.30;10.88;;;-2.90;95.70;;;;;;5096369;28;20210;-79
2022/03/04 04:28:55;;;;;;;16.48;9.50;;;-3.00;95.80;;;;;;5093994;28;20282;-78
2022/03/04 04:31:22;;;;;;;13.98;9.63;;;-3.00;96.00;;;;;;5107867;28;20560;-80
2022/03/04 04:33:49;;;;;;;16.17;9.95;;;-3.00;96.20;;;;;;5100934;28;20216;-81
2022/03/04 04:36:16;;;;;;;12.63;9.18;;;-3.10;96.30;;;;;;5098153;28;20200;-81
2022/03/04 04:38:43;;;;;;;11.88;9.35;;;-3.10;96.30;;;;;;5098987;28;20192;-80
2022/03/04 04:41:11;;;;;;;13.55;9.43;;;-3.10;96.20;;;;;;5115259;28;20218;-78
2022/03/04 04:43:38;;;;;;;13.50;9.27;;;-3.10;96.20;;;;;;5097511;28;20220;-76
2022/03/04 04:46:06;;;;;;;18.35;10.70;;;-3.10;96.40;;;;;;5094192;28;20187;-77
2022/03/04 04:48:33;;;;;;;15.25;9.85;;;-3.10;96.50;;;;;;5097035;28;20196;-80
2022/03/04 04:51:00;;;;;;;17.50;11.07;;;-3.10;96.60;;;;;;5101854;28;20204;-77
2022/03/04 04:53:27;;;;;;;18.17;10.40;;;-3.20;96.60;;;;;;5093037;28;20188;-79
2022/03/04 04:55:55;;;;;;;22.35;11.20;;;-3.20;96.60;;;;;;5093027;28;20290;-78
2022/03/04 04:58:23;;;;;;;16.25;11.43;;;-3.10;96.40;;;;;;5093794;28;20252;-79
2022/03/04 05:00:53;;;;;;;16.42;9.73;;;-3.20;96.40;;;;;;5093331;28;20219;-79
2022/03/04 05:03:20;;;;;;;15.73;10.35;;;-3.20;96.50;;;;;;5093976;28;20213;-79
2022/03/04 05:05:47;;;;;;;14.23;10.10;;;-3.20;96.40;;;;;;5114564;28;20195;-77
2022/03/04 05:08:14;;;;;;;17.00;10.70;;;-3.20;96.60;;;;;;5114344;28;20191;-79
2022/03/04 05:10:41;;;;;;;14.32;10.43;;;-3.20;96.70;;;;;;5115075;28;20562;-79
2022/03/04 05:13:07;;;;;;;15.55;10.40;;;-3.20;96.50;;;;;;5115514;28;20205;-80
2022/03/04 05:15:36;;;;;;;16.08;10.73;;;-3.20;96.50;;;;;;5110129;28;20188;-80
2022/03/04 05:18:03;;;;;;;18.80;11.40;;;-3.30;96.60;;;;;;5109816;28;20198;-78
2022/03/04 05:20:30;;;;;;;15.75;10.90;;;-3.30;96.50;;;;;;5116941;28;20219;-79
2022/03/04 05:22:56;;;;;;;15.25;10.07;;;-3.30;96.40;;;;;;5117062;28;20286;-80
2022/03/04 05:25:23;;;;;;;18.85;13.50;;;-3.30;96.50;;;;;;5111073;28;20461;-82
2022/03/04 05:27:51;;;;;;;16.25;12.07;;;-3.30;96.50;;;;;;5111251;28;20196;-81
2022/03/04 05:30:18;;;;;;;17.40;10.85;;;-3.30;96.60;;;;;;5117396;28;20217;-81
2022/03/04 05:32:46;;;;;;;20.15;10.85;;;-3.30;96.50;;;;;;5134176;28;20187;-80
2022/03/04 05:35:13;;;;;;;14.68;10.38;;;-3.30;96.50;;;;;;5137834;28;20262;-82
2022/03/04 05:37:40;;;;;;;17.08;10.40;;;-3.30;96.60;;;;;;5136861;28;20665;-82
2022/03/04 05:40:08;;;;;;;17.20;9.93;;;-3.30;96.70;;;;;;5134191;28;20316;-82
2022/03/04 05:42:35;;;;;;;15.70;10.75;;;-3.30;96.70;;;;;;5136393;28;20226;-81
2022/03/04 05:45:02;;;;;;;18.25;9.82;;;-3.40;96.70;;;;;;5135393;28;20230;-82
2022/03/04 05:47:29;;;;;;;17.35;10.68;;;-3.30;96.90;;;;;;5133014;28;20191;-82
2022/03/04 05:49:57;;;;;;;19.55;12.20;;;-3.30;96.80;;;;;;5130998;28;20259;-82
2022/03/04 05:52:24;;;;;;;14.68;11.30;;;-3.40;96.70;;;;;;5118699;28;20202;-82
2022/03/04 05:54:50;;;;;;;17.27;11.20;;;-3.40;96.70;;;;;;5118491;28;20223;-81
2022/03/04 05:57:17;;;;;;;17.80;10.48;;;-3.30;96.70;;;;;;5120778;28;20203;-81
2022/03/04 05:59:44;;;;;;;18.20;10.60;;;-3.30;96.70;;;;;;5122598;28;20219;-81
2022/03/04 06:02:11;;;;;;;21.52;11.38;;;-3.40;96.50;;;;;;5122563;28;20207;-83
2022/03/04 06:04:38;;;;;;;19.38;11.73;;;-3.40;96.50;;;;;;5123878;28;20250;-82
2022/03/04 06:07:07;;;;;;;16.42;10.75;;;-3.40;96.50;;;;;;5122471;28;20199;-83
2022/03/04 06:09:34;;;;;;;15.25;10.63;;;-3.40;96.40;;;;;;5123279;28;20203;-83
2022/03/04 06:12:02;;;;;;;17.08;11.05;;;-3.40;96.60;;;;;;5123302;28;20199;-81
2022/03/04 06:14:29;;;;;;;17.48;11.40;;;-3.40;96.70;;;;;;5123685;28;20219;-81
2022/03/04 06:16:56;;;;;;;18.42;10.75;;;-3.40;97.10;;;;;;5124352;28;20203;-79
2022/03/04 06:19:23;;;;;;;17.10;10.40;;;-3.50;97.40;;;;;;5124558;28;20199;-80
2022/03/04 06:21:50;;;;;;;14.80;10.35;;;-3.40;97.60;;;;;;5127541;28;20209;-77
2022/03/04 06:24:18;;;;;;;17.60;11.60;;;-3.40;97.40;;;;;;5128098;28;20229;-79
2022/03/04 06:26:45;;;;;;;19.52;11.40;;;-3.40;97.30;;;;;;5127831;28;20226;-79
2022/03/04 06:29:12;;;;;;;18.05;10.68;;;-3.30;97.30;;;;;;5130293;28;20187;-80
2022/03/04 06:31:39;;;;;;;16.90;10.95;;;-3.30;97.30;;;;;;5129760;28;20202;-78
2022/03/04 06:34:06;;;;;;;14.73;10.52;;;-3.30;97.40;;;;;;5124243;28;20234;-80
2022/03/04 06:36:33;;;;;;;16.45;10.77;;;-3.20;97.30;;;;;;5123579;28;20203;-80
2022/03/04 06:38:59;;;;;;;17.20;11.77;;;-3.20;97.30;;;;;;5127600;28;20233;-79
2022/03/04 06:41:28;;;;;;;16.02;10.93;;;-3.10;97.30;;;;;;5133243;28;20223;-79
2022/03/04 06:43:54;;;;;;;14.95;10.18;;;-3.00;97.30;;;;;;5132728;28;20234;-80
2022/03/04 06:46:21;;;;;;;16.85;9.77;;;-3.00;97.30;;;;;;5134668;28;20211;-78
2022/03/04 06:48:48;;;;;;;18.40;10.40;;;-2.90;97.30;;;;;;5134744;28;20209;-78
2022/03/04 06:51:15;;;;;;;17.67;10.13;;;-2.90;97.10;;;;;;5136539;28;20187;-78
2022/03/04 06:53:41;;;;;;;20.95;11.50;;;-2.80;97.10;;;;;;5136420;28;20227;-78
2022/03/04 06:56:08;;;;;;;15.68;10.10;;;-2.80;97.10;;;;;;5136660;28;20191;-78
2022/03/04 06:58:37;;;;;;;17.15;10.95;;;-2.70;97.20;;;;;;5136547;28;20216;-79
2022/03/04 07:01:05;;;;;;;16.95;10.60;;;-2.60;97.30;;;;;;5137829;28;20222;-79
2022/03/04 07:03:31;;;;;;;15.25;11.05;;;-2.50;97.20;;;;;;5136473;28;20223;-78
2022/03/04 07:05:58;;;;;;;24.95;13.88;;;-2.50;97.20;;;;;;5132205;28;20206;-82
2022/03/04 07:08:25;;;;;;;17.90;12.20;;;-2.40;97.40;;;;;;5122092;28;20207;-80
2022/03/04 07:10:52;;;;;;;18.00;12.00;;;-2.20;97.70;;;;;;5120933;28;20297;-80
2022/03/04 07:13:19;;;;;;;14.05;10.45;;;-1.60;97.90;;;;;;5120216;28;20214;-81
2022/03/04 07:15:47;;;;;;;16.17;10.23;;;-0.60;97.30;;;;;;5121770;28;20209;-80
2022/03/04 07:18:14;;;;;;;12.50;10.50;;;0.50;96.00;;;;;;5121379;28;20199;-79
2022/03/04 07:20:42;;;;;;;17.42;11.70;;;1.50;94.30;;;;;;5120574;28;20221;-81
2022/03/04 07:23:09;;;;;;;20.90;10.70;;;2.40;93.10;;;;;;5121255;28;20199;-80
2022/03/04 07:25:36;;;;;;;16.50;11.68;;;3.30;91.60;;;;;;5121116;28;20670;-81
2022/03/04 07:28:03;;;;;;;15.80;11.15;;;4.20;90.20;;;;;;5120801;28;20579;-81
2022/03/04 07:30:30;;;;;;;13.45;10.50;;;4.90;88.60;;;;;;5120769;28;20199;-80
2022/03/04 07:32:58;;;;;;;15.68;11.25;;;5.60;87.40;;;;;;5120518;28;20199;-81
2022/03/04 07:35:26;;;;;;;15.32;10.80;;;6.30;86.50;;;;;;5120773;28;20223;-79
2022/03/04 07:37:52;;;;;;;15.57;11.57;;;7.10;84.00;;;;;;5126306;28;20185;-78
2022/03/04 07:40:19;;;;;;;16.73;12.43;;;7.80;81.70;;;;;;5138730;28;20213;-76
2022/03/04 07:42:46;;;;;;;16.70;12.48;;;8.40;80.00;;;;;;5190190;22;20238;-93
2022/03/04 07:45:19;;;;;;;15.70;12.23;;;8.80;79.70;;;;;;5161019;27;20170;-91
2022/03/04 07:47:45;;;;;;;20.92;12.93;;;9.20;78.40;;;;;;5160670;27;20196;-93
2022/03/04 07:53:46;;;;;;;16.63;12.70;;;10.10;70.70;;;;;;5075904;28;20222;-91
2022/03/04 07:56:14;;;;;;;15.70;12.20;;;10.20;69.50;;;;;;5123596;28;20203;-91
2022/03/04 08:21:04;;;;;;;16.23;13.10;;;13.20;64.70;;;;;;5000206;28;20261;-92
2022/03/04 08:23:31;;;;;;;15.57;13.23;;;13.70;65.00;;;;;;5056287;28;20491;-90
2022/03/04 08:26:03;;;;;;;22.00;15.03;;;14.00;62.80;;;;;;5137559;28;20270;-91
2022/03/04 08:28:32;;;;;;;16.70;13.07;;;14.10;62.80;;;;;;5137868;28;20458;-91
2022/03/04 08:30:59;;;;;;;15.10;12.90;;;13.70;63.50;;;;;;5138329;28;20480;-90
2022/03/04 08:33:27;;;;;;;15.20;13.10;;;14.10;61.70;;;;;;5138327;28;20472;-90
2022/03/04 08:35:54;;;;;;;17.90;14.10;;;14.30;61.40;;;;;;5125905;28;20547;-91
2022/03/04 08:38:24;;;;;;;16.60;13.00;;;13.70;58.90;;;;;;5120414;28;20449;-92
2022/03/04 08:40:53;;;;;;;18.00;14.17;;;13.20;60.10;;;;;;5120133;28;20488;-92
2022/03/04 08:46:01;;;;;;;17.83;14.03;;;13.90;59.50;;;;;;5120146;28;20455;-91
2022/03/04 08:48:40;;;;;;;19.50;14.63;;;14.00;60.80;;;;;;5118177;28;20449;-92
2022/03/04 08:53:52;;;;;;;16.00;13.93;;;14.30;60.00;;;;;;5041402;22;20481;-77
2022/03/04 08:56:19;;;;;;;17.93;13.90;;;14.80;60.20;;;;;;5025412;28;20506;-77
2022/03/04 08:58:46;;;;;;;18.07;14.97;;;14.70;59.20;;;;;;5026662;28;20458;-77
2022/03/04 09:01:14;;;;;;;15.70;13.87;;;14.60;58.90;;;;;;5027885;28;20487;-76
2022/03/04 09:03:41;;;;;;;17.23;15.00;;;14.70;59.10;;;;;;5027361;28;20488;-77
2022/03/04 09:06:08;;;;;;;17.33;14.10;;;15.10;58.70;;;;;;5027008;28;20524;-77
2022/03/04 09:08:35;;;;;;;19.70;14.70;;;15.40;58.30;;;;;;5026176;28;20465;-77
2022/03/04 09:11:03;;;;;;;16.63;14.33;;;15.80;56.30;;;;;;5026888;28;20845;-77
2022/03/04 09:13:32;;;;;;;19.70;14.60;;;15.70;55.90;;;;;;5027392;28;20484;-77
2022/03/04 09:15:59;;;;;;;16.43;13.43;;;15.30;56.80;;;;;;5026151;28;20496;-77
2022/03/04 09:18:26;;;;;;;16.67;13.97;;;15.80;56.20;;;;;;5026694;28;20460;-77
2022/03/04 09:20:53;;;;;;;16.80;14.43;;;16.30;56.00;;;;;;5026128;28;20468;-76
2022/03/04 09:23:20;;;;;;;17.07;14.83;;;16.60;55.40;;;;;;5026259;28;20464;-76
2022/03/04 09:25:48;;;;;;;18.70;15.30;;;16.80;55.50;;;;;;5026032;28;20468;-76
2022/03/04 09:28:17;;;;;;;18.30;15.40;;;17.00;55.10;;;;;;5025856;28;20994;-76
2022/03/04 09:30:44;;;;;;;17.87;13.53;;;17.60;54.60;;;;;;5026439;28;20499;-76
2022/03/04 09:33:11;;;;;;;16.50;13.80;;;18.10;54.10;;;;;;5029968;28;20473;-76
2022/03/04 09:35:38;;;;;;;20.17;16.00;;;18.50;53.30;;;;;;5029982;28;20464;-76
2022/03/04 09:38:05;;;;;;;15.27;13.50;;;18.70;52.70;;;;;;5028992;28;20456;-76
2022/03/04 09:40:33;;;;;;;17.63;14.73;;;18.80;52.20;;;;;;5029147;28;20460;-76
2022/03/04 09:43:00;;;;;;;17.90;14.60;;;18.00;52.80;;;;;;5029759;28;20496;-76
2022/03/04 09:45:28;;;;;;;16.00;14.30;;;18.10;53.80;;;;;;5029098;28;20836;-76
2022/03/04 09:47:55;;;;;;;16.43;14.63;;;18.20;52.80;;;;;;5008029;28;20470;-76
2022/03/04 09:50:22;;;;;;;16.53;14.13;;;18.70;53.30;;;;;;5096235;28;20460;-76
2022/03/04 09:52:50;;;;;;;16.10;14.40;;;18.70;52.10;;;;;;5112609;28;20883;-76
2022/03/04 09:55:17;;;;;;;16.43;14.67;;;18.60;52.80;;;;;;5112892;28;20512;-76
2022/03/04 09:57:44;;;;;;;15.50;13.60;;;18.60;52.50;;;;;;5112807;28;20986;-76
2022/03/04 10:00:12;;;;;;;18.40;15.07;;;18.90;52.50;;;;;;5113068;28;20456;-76
2022/03/04 10:02:40;;;;;;;15.03;13.30;;;19.40;51.80;;;;;;5112906;27;20491;-76
2022/03/04 10:05:09;;;;;;;18.20;14.63;;;19.90;48.80;;;;;;5113155;28;20499;-76
2022/03/04 10:07:41;;;;;;;15.47;13.60;;;19.90;49.50;;;;;;5111859;28;20485;-76
2022/03/04 10:10:13;;;;;;;16.10;14.40;;;19.90;50.80;;;;;;5112985;28;20456;-76
2022/03/04 10:12:55;;;;;;;19.77;16.13;;;20.20;51.10;;;;;;5111961;28;20871;-76
2022/03/04 10:15:23;;;;;;;16.73;14.40;;;20.10;50.10;;;;;;5112772;28;20555;-76
2022/03/04 10:17:59;;;;;;;16.43;14.60;;;20.10;51.20;;;;;;5109706;28;20462;-76
2022/03/04 10:20:40;;;;;;;15.90;13.73;;;20.40;48.10;;;;;;4987411;28;20461;-76
2022/03/04 10:23:12;;;;;;;17.63;15.13;;;20.60;48.80;;;;;;4988541;28;21014;-76
2022/03/04 10:25:42;;;;;;;17.97;15.13;;;21.00;49.60;;;;;;4988200;28;20666;-76
2022/03/04 10:28:10;;;;;;;18.00;14.10;;;21.20;47.10;;;;;;4988152;28;20462;-76
2022/03/04 10:30:37;;;;;;;16.27;14.57;;;21.00;48.20;;;;;;4988478;28;20467;-76
2022/03/04 10:33:09;;;;;;;16.57;14.87;;;21.00;48.20;;;;;;4988230;28;20516;-77
2022/03/04 10:35:36;;;;;;;15.63;14.00;;;20.40;48.80;;;;;;4989411;28;20462;-76
2022/03/04 10:38:04;;;;;;;16.50;13.37;;;20.50;47.60;;;;;;4988774;28;20466;-76
2022/03/04 10:40:32;;;;;;;14.60;13.00;;;20.80;47.70;;;;;;4989095;28;20469;-76
2022/03/04 10:43:01;;;;;;;15.67;13.23;;;20.70;46.80;;;;;;4988369;28;20497;-76
2022/03/04 10:45:30;;;;;;;14.93;13.33;;;21.10;46.10;;;;;;4988912;28;20573;-77
2022/03/04 10:47:59;;;;;;;16.67;13.40;;;21.80;47.60;;;;;;4987949;28;20462;-76
2022/03/04 10:50:33;;;;;;;19.10;13.50;;;22.20;46.10;;;;;;4989466;28;20462;-76
2022/03/04 10:53:03;;;;;;;17.57;14.17;;;21.60;46.40;;;;;;4988649;28;20477;-76
2022/03/04 10:55:36;;;;;;;16.13;14.23;;;21.60;46.10;;;;;;4988807;28;20573;-76
2022/03/04 10:58:05;;;;;;;16.17;14.47;;;21.30;47.40;;;;;;4988634;28;20525;-77
2022/03/04 11:00:34;;;;;;;15.90;14.20;;;22.10;47.60;;;;;;4989414;28;20472;-76
2022/03/04 11:03:01;;;;;;;14.63;13.10;;;21.60;44.60;;;;;;4989075;28;20489;-76
2022/03/04 11:05:29;;;;;;;17.80;13.37;;;20.90;45.30;;;;;;4988561;28;20539;-76
2022/03/04 11:07:57;;;;;;;16.77;12.70;;;19.60;44.70;;;;;;4988348;28;20466;-76
2022/03/04 11:10:25;;;;;;;16.70;13.20;;;19.40;46.60;;;;;;4989041;28;20484;-76
2022/03/04 11:12:53;;;;;;;14.00;12.50;;;19.70;46.40;;;;;;4988918;28;20507;-76
2022/03/04 11:15:21;;;;;;;16.90;14.13;;;20.10;46.40;;;;;;4998851;28;20521;-77
2022/03/04 11:17:48;;;;;;;15.67;13.87;;;20.00;45.70;;;;;;5110693;28;20468;-76
2022/03/04 11:20:17;;;;;;;15.73;12.63;;;20.40;45.80;;;;;;5110220;28;20795;-77
2022/03/04 11:22:49;;;;;;;19.07;13.03;;;21.30;45.60;;;;;;5111478;28;20492;-76
2022/03/04 11:25:16;;;;;;;15.70;13.63;;;21.80;46.30;;;;;;5112126;28;20483;-77
2022/03/04 11:27:45;;;;;;;14.03;12.63;;;22.70;46.20;;;;;;5111816;28;20460;-77
2022/03/04 11:30:33;;;;;;;16.67;13.90;;;22.90;44.90;;;;;;5111316;28;20467;-77
2022/03/04 11:33:13;;;;;;;18.00;12.80;;;22.90;44.60;;;;;;5110734;28;20503;-77
2022/03/04 11:36:08;;;;;;;14.60;12.93;;;22.50;44.80;;;;;;5111809;28;20456;-76
2022/03/04 11:39:13;;;;;;;16.80;14.73;;;22.20;46.30;;;;;;5109410;28;20453;-77
2022/03/04 11:42:14;;;;;;;15.73;13.13;;;22.80;46.20;;;;;;5111575;28;20488;-76
2022/03/04 11:45:11;;;;;;;18.50;13.97;;;23.00;45.30;;;;;;5110675;28;20515;-76
2022/03/04 11:47:39;;;;;;;15.60;14.00;;;23.80;45.40;;;;;;5064838;28;20518;-76
2022/03/04 11:50:26;;;;;;;14.70;13.20;;;24.10;45.50;;;;;;5110613;28;20574;-76
2022/03/04 11:52:52;;;;;;;14.77;13.30;;;23.40;43.40;;;;;;5110996;28;20456;-76
2022/03/04 11:55:26;;;;;;;18.00;14.13;;;22.20;44.10;;;;;;5110540;28;20481;-76
2022/03/04 11:58:04;;;;;;;12.73;11.30;;;21.60;44.00;;;;;;5110683;28;20539;-76
2022/03/04 12:00:33;;;;;;;16.40;13.10;;;21.60;43.40;;;;;;5109741;28;20455;-76
2022/03/04 12:03:09;;;;;;;15.77;13.40;;;21.80;43.70;;;;;;5110579;28;20492;-76
2022/03/04 12:05:38;;;;;;;14.70;12.60;;;21.60;42.80;;;;;;5111371;28;20843;-76
2022/03/04 12:08:13;;;;;;;14.37;12.83;;;21.40;44.90;;;;;;5109852;28;20476;-76
2022/03/04 12:10:47;;;;;;;16.40;12.80;;;20.50;44.10;;;;;;5110565;28;20832;-76
2022/03/04 12:13:18;;;;;;;15.10;13.50;;;20.30;46.80;;;;;;5110889;28;20456;-76
2022/03/04 12:15:49;;;;;;;15.07;13.43;;;20.80;45.60;;;;;;5110448;28;20457;-76
2022/03/04 12:18:18;;;;;;;14.40;12.90;;;20.90;45.60;;;;;;5109674;28;20483;-76
2022/03/04 12:21:05;;;;;;;15.73;13.80;;;20.80;45.60;;;;;;5110690;28;20547;-76
2022/03/04 12:23:36;;;;;;;16.17;14.30;;;21.10;45.10;;;;;;5109480;28;20477;-76
2022/03/04 12:26:12;;;;;;;18.80;14.60;;;20.80;45.10;;;;;;5110919;28;20506;-77
2022/03/04 12:28:44;;;;;;;18.60;14.23;;;21.60;45.90;;;;;;5110412;28;20492;-76
2022/03/04 12:31:19;;;;;;;17.87;15.90;;;22.50;46.10;;;;;;5109405;28;20496;-76
2022/03/04 12:33:50;;;;;;;17.30;15.53;;;22.20;46.40;;;;;;5109654;28;20476;-76
2022/03/04 12:36:18;;;;;;;18.10;13.57;;;22.30;46.00;;;;;;5110354;28;20867;-76
2022/03/04 12:38:46;;;;;;;18.10;15.17;;;22.50;45.90;;;;;;5108203;28;20974;-76
2022/03/04 12:41:16;;;;;;;16.40;13.43;;;22.70;45.80;;;;;;5110222;28;20461;-76
2022/03/04 12:43:44;;;;;;;14.60;12.63;;;22.80;45.40;;;;;;5110473;28;20485;-77
2022/03/04 12:46:11;;;;;;;15.90;12.97;;;22.30;44.70;;;;;;5109741;28;20460;-77
2022/03/04 12:48:38;;;;;;;15.07;13.50;;;22.30;44.40;;;;;;5086320;28;20529;-76
2022/03/04 12:51:19;;;;;;;15.40;13.80;;;22.00;45.50;;;;;;5003489;28;20465;-76
2022/03/04 12:53:45;;;;;;;15.10;13.50;;;21.90;45.90;;;;;;5002408;28;20488;-78
2022/03/04 12:56:13;;;;;;;15.13;13.63;;;22.10;45.70;;;;;;4997950;28;20459;-76
2022/03/04 12:58:43;;;;;;;16.83;13.67;;;21.80;44.40;;;;;;4995632;28;20455;-77
2022/03/04 13:01:11;;;;;;;17.50;13.50;;;21.50;44.80;;;;;;4996663;28;20820;-77
2022/03/04 13:03:38;;;;;;;14.90;13.30;;;21.10;44.80;;;;;;5027473;28;20492;-76
2022/03/04 13:06:05;;;;;;;14.60;12.80;;;21.20;45.70;;;;;;5110586;28;20464;-78
2022/03/04 13:08:33;;;;;;;17.07;14.53;;;21.50;45.50;;;;;;5108825;28;20460;-76
2022/03/04 13:11:11;;;;;;;16.73;14.13;;;22.10;44.70;;;;;;5111118;28;20485;-77